createdAt,value
2023-04-07T00:00:16.083Z,66.60
2023-04-07T00:02:44.737Z,66.90
2023-04-07T00:05:12.909Z,67.20
2023-04-07T00:07:52.224Z,67.50
2023-04-07T00:10:25.820Z,67.80
2023-04-07T00:12:54.192Z,67.80
2023-04-07T00:15:22.233Z,68.00
2023-04-07T00:17:50.450Z,67.80
2023-04-07T00:20:18.514Z,68.10
2023-04-07T00:22:46.615Z,68.30
2023-04-07T00:25:14.655Z,68.60
2023-04-07T00:27:44.129Z,68.60
2023-04-07T00:30:12.632Z,69.00
2023-04-07T00:32:40.735Z,69.10
2023-04-07T00:35:09.685Z,69.40
2023-04-07T00:37:37.849Z,69.60
2023-04-07T00:40:06.944Z,69.60
2023-04-07T00:42:35.294Z,69.70
2023-04-07T00:45:05.202Z,69.70
2023-04-07T00:47:33.343Z,69.80
2023-04-07T00:50:01.409Z,69.90
2023-04-07T00:52:30.214Z,70.00
2023-04-07T00:54:58.791Z,69.80
2023-04-07T00:57:27.410Z,70.20
2023-04-07T00:59:57.324Z,70.30
2023-04-07T01:02:33.579Z,70.60
2023-04-07T01:05:10.699Z,71.00
2023-04-07T01:07:49.579Z,70.80
2023-04-07T01:10:22.484Z,70.90
2023-04-07T01:12:58.315Z,71.00
2023-04-07T01:15:29.172Z,71.00
2023-04-07T01:18:05.452Z,70.90
2023-04-07T01:20:34.614Z,71.20
2023-04-07T01:23:06.040Z,71.00
2023-04-07T01:25:58.220Z,71.10
2023-04-07T01:28:43.735Z,71.30
2023-04-07T01:31:15.679Z,69.90
2023-04-07T01:33:45.010Z,70.30
2023-04-07T01:36:14.076Z,69.40
2023-04-07T01:38:43.120Z,70.00
2023-04-07T01:41:12.156Z,70.50
2023-04-07T01:43:42.446Z,70.80
2023-04-07T01:46:12.382Z,71.10
2023-04-07T01:48:41.582Z,71.10
2023-04-07T01:51:17.347Z,71.40
2023-04-07T01:53:46.584Z,71.30
2023-04-07T01:56:14.674Z,71.20
2023-04-07T01:58:42.780Z,71.40
2023-04-07T02:01:12.660Z,71.50
2023-04-07T02:03:48.033Z,71.60
2023-04-07T02:06:21.236Z,71.90
2023-04-07T02:08:54.320Z,71.90
2023-04-07T02:11:23.648Z,71.80
2023-04-07T02:13:53.143Z,71.90
2023-04-07T02:16:24.044Z,72.00
2023-04-07T02:18:53.676Z,72.00
2023-04-07T02:21:23.029Z,71.80
2023-04-07T02:23:51.233Z,72.00
2023-04-07T02:26:19.308Z,71.70
2023-04-07T02:28:47.344Z,71.90
2023-04-07T02:31:15.430Z,72.10
2023-04-07T02:33:44.894Z,72.30
2023-04-07T02:36:12.923Z,72.40
2023-04-07T02:38:40.991Z,72.20
2023-04-07T02:41:09.055Z,72.30
2023-04-07T02:43:37.107Z,72.40
2023-04-07T02:46:05.529Z,72.40
2023-04-07T02:48:33.628Z,72.40
2023-04-07T02:51:03.034Z,72.20
2023-04-07T02:53:31.138Z,72.30
2023-04-07T02:55:59.547Z,72.30
2023-04-07T02:58:27.618Z,72.20
2023-04-07T03:00:55.673Z,72.20
2023-04-07T03:03:23.901Z,72.50
2023-04-07T03:05:52.095Z,72.50
2023-04-07T03:08:21.485Z,72.50
2023-04-07T03:10:49.576Z,72.60
2023-04-07T03:13:19.220Z,72.50
2023-04-07T03:15:47.354Z,72.50
2023-04-07T03:18:15.786Z,72.60
2023-04-07T03:20:44.600Z,72.80
2023-04-07T03:23:13.077Z,72.70
2023-04-07T03:25:42.929Z,72.90
2023-04-07T03:28:11.068Z,72.80
2023-04-07T03:30:39.158Z,72.80
2023-04-07T03:33:07.381Z,72.80
2023-04-07T03:35:35.520Z,73.00
2023-04-07T03:38:03.573Z,72.90
2023-04-07T03:40:33.578Z,72.90
2023-04-07T03:43:03.182Z,72.80
2023-04-07T03:45:31.262Z,73.10
2023-04-07T03:47:59.377Z,73.00
2023-04-07T03:50:27.461Z,73.10
2023-04-07T03:52:55.508Z,73.10
2023-04-07T03:55:23.613Z,73.20
2023-04-07T03:57:51.686Z,73.20
2023-04-07T04:00:21.272Z,73.30
2023-04-07T04:02:49.474Z,73.20
2023-04-07T04:05:17.646Z,73.10
2023-04-07T04:07:45.692Z,73.20
2023-04-07T04:10:13.753Z,73.10
2023-04-07T04:12:42.118Z,73.10
2023-04-07T04:15:11.140Z,73.00
2023-04-07T04:17:41.568Z,73.20
2023-04-07T04:20:10.833Z,73.10
2023-04-07T04:22:38.929Z,73.20
2023-04-07T04:25:07.288Z,73.20
2023-04-07T04:27:35.440Z,73.40
2023-04-07T04:30:03.765Z,73.40
2023-04-07T04:32:32.821Z,73.50
2023-04-07T04:35:02.274Z,73.70
2023-04-07T04:37:30.547Z,73.70
2023-04-07T04:39:58.594Z,73.50
2023-04-07T04:42:27.945Z,73.50
2023-04-07T04:44:56.271Z,73.50
2023-04-07T04:47:24.531Z,73.50
2023-04-07T04:49:52.768Z,73.50
2023-04-07T04:52:22.192Z,73.60
2023-04-07T04:54:50.515Z,73.70
2023-04-07T04:57:18.562Z,73.40
2023-04-07T04:59:46.598Z,74.20
2023-04-07T05:02:14.791Z,73.40
2023-04-07T05:04:42.972Z,73.40
2023-04-07T05:07:11.110Z,73.50
2023-04-07T05:09:40.536Z,73.40
2023-04-07T05:12:08.794Z,73.50
2023-04-07T05:14:36.902Z,73.50
2023-04-07T05:17:04.937Z,73.40
2023-04-07T05:19:33.573Z,73.40
2023-04-07T05:22:01.627Z,73.30
2023-04-07T05:24:31.024Z,73.20
2023-04-07T05:27:01.861Z,73.30
2023-04-07T05:29:29.973Z,73.40
2023-04-07T05:31:58.072Z,73.30
2023-04-07T05:34:26.182Z,73.20
2023-04-07T05:36:54.230Z,73.20
2023-04-07T05:39:22.280Z,73.20
2023-04-07T05:41:50.339Z,73.40
2023-04-07T05:44:19.780Z,73.40
2023-04-07T05:46:47.813Z,73.30
2023-04-07T05:49:20.252Z,73.30
2023-04-07T05:51:49.260Z,73.40
2023-04-07T05:54:17.560Z,73.70
2023-04-07T05:56:45.583Z,73.70
2023-04-07T05:59:13.765Z,73.50
2023-04-07T06:01:44.035Z,73.60
2023-04-07T06:04:12.248Z,73.70
2023-04-07T06:06:40.346Z,73.50
2023-04-07T06:09:08.489Z,73.50
2023-04-07T06:11:36.831Z,73.50
2023-04-07T06:14:04.927Z,73.40
2023-04-07T06:16:33.046Z,73.50
2023-04-07T06:19:02.649Z,73.50
2023-04-07T06:21:30.752Z,73.50
2023-04-07T06:23:58.797Z,73.30
2023-04-07T06:26:27.196Z,73.50
2023-04-07T06:28:55.338Z,73.40
2023-04-07T06:31:23.470Z,73.50
2023-04-07T06:33:51.677Z,73.60
2023-04-07T06:36:21.692Z,73.50
2023-04-07T06:38:49.868Z,73.60
2023-04-07T06:41:17.966Z,73.40
2023-04-07T06:43:47.958Z,73.30
2023-04-07T06:46:16.364Z,73.40
2023-04-07T06:48:44.532Z,73.30
2023-04-07T06:51:12.700Z,73.30
2023-04-07T06:53:44.241Z,73.30
2023-04-07T06:56:13.314Z,73.60
2023-04-07T06:58:41.715Z,73.70
2023-04-07T07:01:09.970Z,73.60
2023-04-07T07:03:38.138Z,73.60
2023-04-07T07:06:06.617Z,73.50
2023-04-07T07:08:34.656Z,73.60
2023-04-07T07:11:04.108Z,73.50
2023-04-07T07:13:32.148Z,73.50
2023-04-07T07:16:00.290Z,73.50
2023-04-07T07:18:30.370Z,73.60
2023-04-07T07:20:59.648Z,73.40
2023-04-07T07:23:27.740Z,73.40
2023-04-07T07:25:55.759Z,73.30
2023-04-07T07:28:25.341Z,73.40
2023-04-07T07:30:53.406Z,73.60
2023-04-07T07:33:22.741Z,73.50
2023-04-07T07:35:50.880Z,73.50
2023-04-07T07:38:18.975Z,73.50
2023-04-07T07:40:47.611Z,73.50
2023-04-07T07:43:15.772Z,73.40
2023-04-07T07:45:45.456Z,73.50
2023-04-07T07:48:13.765Z,73.70
2023-04-07T07:50:42.893Z,73.80
2023-04-07T07:53:11.012Z,73.90
2023-04-07T07:55:39.087Z,73.80
2023-04-07T07:58:07.138Z,73.70
2023-04-07T08:00:35.234Z,73.90
2023-04-07T08:03:04.814Z,74.10
2023-04-07T08:05:32.920Z,74.20
2023-04-07T08:08:01.641Z,74.10
2023-04-07T08:10:29.700Z,73.90
2023-04-07T08:12:57.758Z,74.00
2023-04-07T08:15:26.563Z,74.00
2023-04-07T08:17:56.075Z,74.00
2023-04-07T08:20:25.828Z,74.10
2023-04-07T08:22:53.893Z,74.80
2023-04-07T08:25:22.078Z,73.90
2023-04-07T08:27:50.121Z,73.80
2023-04-07T08:30:18.273Z,74.00
2023-04-07T08:32:46.607Z,74.00
2023-04-07T08:35:15.022Z,74.00
2023-04-07T08:37:44.633Z,74.00
2023-04-07T08:40:13.768Z,74.10
2023-04-07T08:42:44.088Z,74.10
2023-04-07T08:45:12.736Z,74.00
2023-04-07T08:47:43.079Z,74.00
2023-04-07T08:50:13.040Z,74.70
2023-04-07T08:52:46.527Z,73.70
2023-04-07T08:55:15.017Z,73.80
2023-04-07T08:57:43.592Z,73.70
2023-04-07T09:00:13.143Z,73.60
2023-04-07T09:02:43.677Z,73.60
2023-04-07T09:05:12.572Z,73.70
2023-04-07T09:07:43.115Z,74.50
2023-04-07T09:10:12.788Z,73.40
2023-04-07T09:12:41.076Z,73.50
2023-04-07T09:15:09.984Z,73.60
2023-04-07T09:17:38.363Z,73.80
2023-04-07T09:20:07.200Z,73.90
2023-04-07T09:22:39.834Z,73.80
2023-04-07T09:25:14.477Z,73.80
2023-04-07T09:27:42.855Z,73.90
2023-04-07T09:30:15.830Z,73.90
2023-04-07T09:32:44.128Z,73.90
2023-04-07T09:35:12.216Z,73.70
2023-04-07T09:37:40.346Z,73.60
2023-04-07T09:40:09.857Z,73.70
2023-04-07T09:42:46.494Z,73.80
2023-04-07T09:45:23.820Z,74.20
2023-04-07T09:47:59.966Z,73.70
2023-04-07T09:50:36.054Z,73.80
2023-04-07T09:53:04.599Z,74.10
2023-04-07T09:55:33.872Z,73.80
2023-04-07T09:58:05.147Z,73.70
2023-04-07T10:00:33.649Z,73.60
2023-04-07T10:03:03.633Z,73.60
2023-04-07T10:05:33.708Z,73.60
2023-04-07T10:08:03.379Z,73.70
2023-04-07T10:10:32.850Z,73.70
2023-04-07T10:13:01.217Z,73.70
2023-04-07T10:15:32.133Z,73.70
2023-04-07T10:18:01.442Z,73.60
2023-04-07T10:20:30.704Z,73.60
2023-04-07T10:23:10.495Z,73.70
2023-04-07T10:25:41.514Z,73.90
2023-04-07T10:28:12.097Z,73.90
2023-04-07T10:30:42.412Z,73.80
2023-04-07T10:33:10.539Z,73.50
2023-04-07T10:36:07.325Z,73.30
2023-04-07T10:38:36.345Z,73.80
2023-04-07T10:41:33.724Z,73.50
2023-04-07T10:44:02.864Z,73.90
2023-04-07T10:47:05.834Z,73.20
2023-04-07T10:49:35.061Z,73.20
2023-04-07T10:52:25.352Z,72.70
2023-04-07T10:55:31.886Z,73.30
2023-04-07T10:58:23.829Z,73.20
2023-04-07T11:01:22.949Z,73.00
2023-04-07T11:04:01.284Z,72.90
2023-04-07T11:06:29.854Z,73.40
2023-04-07T11:08:57.928Z,72.90
2023-04-07T11:11:40.780Z,72.90
2023-04-07T11:14:08.932Z,73.30
2023-04-07T11:16:46.433Z,72.90
2023-04-07T11:19:15.835Z,73.20
2023-04-07T11:21:43.922Z,72.80
2023-04-07T11:24:12.101Z,72.80
2023-04-07T11:26:41.990Z,72.90
2023-04-07T11:29:11.713Z,72.80
2023-04-07T11:31:40.172Z,72.70
2023-04-07T11:34:09.026Z,72.80
2023-04-07T11:36:40.140Z,72.90
2023-04-07T11:39:19.954Z,73.20
2023-04-07T11:41:49.614Z,73.00
2023-04-07T11:44:18.045Z,72.40
2023-04-07T11:46:54.905Z,72.20
2023-04-07T11:49:23.817Z,72.10
2023-04-07T11:52:00.281Z,71.80
2023-04-07T11:54:28.376Z,71.90
2023-04-07T11:56:56.475Z,71.80
2023-04-07T11:59:26.135Z,72.10
2023-04-07T12:01:57.513Z,72.30
2023-04-07T12:04:26.225Z,72.30
2023-04-07T12:06:56.058Z,72.20
2023-04-07T12:09:29.603Z,71.90
2023-04-07T12:11:58.513Z,72.00
2023-04-07T12:14:27.670Z,72.00
2023-04-07T12:16:58.010Z,72.10
2023-04-07T12:19:28.099Z,72.30
2023-04-07T12:21:58.122Z,72.40
2023-04-07T12:24:26.187Z,72.20
2023-04-07T12:26:54.236Z,72.20
2023-04-07T12:29:22.260Z,72.20
2023-04-07T12:31:51.367Z,72.10
2023-04-07T12:34:19.816Z,72.00
2023-04-07T12:36:48.220Z,72.10
2023-04-07T12:39:17.871Z,72.10
2023-04-07T12:41:47.605Z,72.00
2023-04-07T12:44:16.578Z,71.90
2023-04-07T12:46:44.633Z,72.10
2023-04-07T12:49:12.692Z,71.60
2023-04-07T12:51:41.332Z,71.80
2023-04-07T12:54:09.672Z,72.50
2023-04-07T12:56:40.329Z,71.40
2023-04-07T12:59:08.524Z,71.00
2023-04-07T13:01:37.309Z,70.90
2023-04-07T13:04:05.829Z,71.80
2023-04-07T13:06:33.926Z,70.80
2023-04-07T13:09:02.035Z,70.90
2023-04-07T13:11:30.078Z,70.90
2023-04-07T13:14:01.273Z,70.60
2023-04-07T13:16:29.836Z,70.00
2023-04-07T13:18:58.324Z,69.50
2023-04-07T13:21:45.260Z,69.70
2023-04-07T13:24:14.018Z,69.40
2023-04-07T13:26:42.066Z,68.90
2023-04-07T13:29:11.487Z,68.90
2023-04-07T13:31:39.539Z,68.40
2023-04-07T13:34:07.691Z,67.30
2023-04-07T13:36:35.762Z,67.20
2023-04-07T13:39:03.891Z,66.40
2023-04-07T13:41:32.118Z,66.20
2023-04-07T13:44:00.797Z,66.10
2023-04-07T13:46:30.809Z,65.70
2023-04-07T13:48:59.162Z,65.70
2023-04-07T13:51:28.121Z,66.10
2023-04-07T13:53:56.575Z,65.80
2023-04-07T13:56:24.804Z,65.60
2023-04-07T13:58:52.901Z,65.50
2023-04-07T14:01:22.115Z,65.00
2023-04-07T14:03:52.760Z,65.00
2023-04-07T14:06:22.730Z,64.90
2023-04-07T14:08:51.155Z,65.10
2023-04-07T14:11:19.573Z,65.40
2023-04-07T14:13:48.211Z,65.20
2023-04-07T14:16:16.705Z,65.10
2023-04-07T14:18:44.782Z,64.90
2023-04-07T14:21:14.174Z,65.00
2023-04-07T14:23:42.288Z,65.00
2023-04-07T14:26:11.644Z,65.00
2023-04-07T14:28:39.908Z,65.00
2023-04-07T14:31:08.104Z,65.10
2023-04-07T14:33:36.534Z,65.30
2023-04-07T14:36:04.749Z,65.60
2023-04-07T14:38:35.288Z,65.40
2023-04-07T14:43:35.664Z,65.90
2023-04-07T14:46:03.748Z,65.90
2023-04-07T14:48:32.594Z,65.90
2023-04-07T14:51:09.313Z,65.90
2023-04-07T14:53:39.540Z,65.90
2023-04-07T14:56:08.302Z,65.80
2023-04-07T14:58:38.856Z,65.50
2023-04-07T15:01:06.979Z,65.30
2023-04-07T15:03:36.745Z,65.60
2023-04-07T15:06:08.705Z,65.90
2023-04-07T15:08:36.827Z,66.20
2023-04-07T15:11:07.318Z,66.30
2023-04-07T15:13:36.142Z,66.50
2023-04-07T15:16:11.619Z,66.70
2023-04-07T15:18:41.581Z,66.90
2023-04-07T15:21:10.314Z,66.90
2023-04-07T15:23:38.971Z,66.80
2023-04-07T15:26:09.810Z,66.80
2023-04-07T15:28:38.082Z,66.80
2023-04-07T15:31:09.040Z,66.70
2023-04-07T15:33:38.075Z,66.60
2023-04-07T15:36:06.825Z,67.50
2023-04-07T15:38:34.973Z,67.00
2023-04-07T15:41:03.029Z,67.20
2023-04-07T15:43:32.505Z,67.20
2023-04-07T15:46:00.527Z,67.30
2023-04-07T15:48:28.607Z,67.40
2023-04-07T15:50:56.736Z,67.60
2023-04-07T15:53:24.921Z,67.70
2023-04-07T15:55:52.977Z,67.80
2023-04-07T15:58:21.045Z,67.60
2023-04-07T16:00:50.543Z,67.60
2023-04-07T16:03:18.846Z,67.60
2023-04-07T16:05:47.031Z,67.70
2023-04-07T16:08:15.098Z,67.80
2023-04-07T16:10:43.162Z,67.90
2023-04-07T16:13:11.373Z,68.00
2023-04-07T16:15:41.292Z,68.10
2023-04-07T16:18:12.668Z,68.10
2023-04-07T16:20:40.849Z,68.30
2023-04-07T16:23:08.935Z,68.00
2023-04-07T16:25:37.343Z,67.90
2023-04-07T16:28:05.448Z,67.90
2023-04-07T16:30:33.611Z,67.90
2023-04-07T16:33:01.828Z,67.90
2023-04-07T16:35:32.015Z,67.90
2023-04-07T16:38:04.025Z,67.80
2023-04-07T16:40:32.041Z,67.80
2023-04-07T16:43:00.260Z,67.60
2023-04-07T16:45:28.362Z,67.80
2023-04-07T16:47:56.459Z,68.00
2023-04-07T16:50:24.548Z,68.20
2023-04-07T16:52:54.895Z,68.20
2023-04-07T16:55:23.166Z,68.30
2023-04-07T16:57:51.441Z,68.10
2023-04-07T17:00:21.061Z,68.00
2023-04-07T17:02:50.318Z,68.10
2023-04-07T17:05:18.521Z,68.00
2023-04-07T17:07:46.657Z,68.00
2023-04-07T17:10:16.228Z,68.10
2023-04-07T17:12:44.367Z,68.10
2023-04-07T17:15:12.821Z,68.10
2023-04-07T17:17:40.899Z,68.10
2023-04-07T17:20:10.762Z,68.10
2023-04-07T17:22:38.943Z,68.20
2023-04-07T17:25:07.769Z,68.10
2023-04-07T17:27:37.177Z,68.30
2023-04-07T17:30:06.632Z,68.30
2023-04-07T17:32:34.694Z,68.20
2023-04-07T17:35:02.720Z,68.20
2023-04-07T17:37:30.796Z,68.20
2023-04-07T17:40:00.227Z,68.30
2023-04-07T17:42:28.335Z,68.30
2023-04-07T17:44:57.818Z,68.30
2023-04-07T17:47:25.912Z,68.20
2023-04-07T17:49:54.014Z,68.20
2023-04-07T17:52:22.218Z,68.20
2023-04-07T17:54:50.914Z,68.20
2023-04-07T17:57:19.924Z,68.30
2023-04-07T17:59:48.816Z,68.30
2023-04-07T18:02:18.390Z,68.20
2023-04-07T18:04:46.724Z,68.10
2023-04-07T18:07:14.948Z,68.20
2023-04-07T18:09:44.941Z,68.20
2023-04-07T18:12:13.482Z,68.20
2023-04-07T18:14:41.532Z,68.20
2023-04-07T18:17:09.581Z,68.10
2023-04-07T18:19:39.014Z,68.00
2023-04-07T18:22:07.055Z,68.00
2023-04-07T18:24:35.086Z,67.90
2023-04-07T18:27:04.052Z,68.00
2023-04-07T18:29:32.320Z,68.20
2023-04-07T18:32:00.502Z,68.20
2023-04-07T18:34:28.659Z,68.20
2023-04-07T18:36:58.049Z,68.30
2023-04-07T18:39:28.020Z,68.50
2023-04-07T18:41:57.748Z,68.60
2023-04-07T18:44:25.992Z,68.60
2023-04-07T18:46:54.410Z,68.70
2023-04-07T18:49:22.456Z,68.80
2023-04-07T18:51:50.525Z,68.90
2023-04-07T18:54:21.140Z,68.90
2023-04-07T18:56:49.187Z,68.90
2023-04-07T18:59:17.235Z,68.90
2023-04-07T19:01:45.503Z,68.90
2023-04-07T19:04:15.079Z,68.80
2023-04-07T19:06:43.164Z,68.80
2023-04-07T19:09:11.420Z,68.80
2023-04-07T19:11:41.624Z,68.80
2023-04-07T19:14:09.720Z,68.80
2023-04-07T19:16:38.007Z,68.70
2023-04-07T19:19:06.221Z,68.70
2023-04-07T19:21:34.251Z,68.70
2023-04-07T19:24:02.279Z,68.70
2023-04-07T19:26:30.591Z,68.80
2023-04-07T19:29:00.128Z,68.80
2023-04-07T19:31:28.197Z,68.90
2023-04-07T19:33:56.279Z,68.80
2023-04-07T19:36:24.342Z,68.90
2023-04-07T19:38:52.351Z,69.00
2023-04-07T19:41:20.407Z,68.90
2023-04-07T19:43:48.831Z,69.00
2023-04-07T19:46:18.512Z,69.00
2023-04-07T19:48:46.889Z,69.20
2023-04-07T19:51:15.023Z,69.20
2023-04-07T19:53:43.251Z,69.30
2023-04-07T19:56:13.808Z,69.30
2023-04-07T19:58:41.833Z,69.40
2023-04-07T20:01:18.500Z,69.40
2023-04-07T20:03:47.059Z,69.70
2023-04-07T20:06:15.362Z,69.50
2023-04-07T20:08:43.541Z,69.60
2023-04-07T20:11:13.303Z,69.50
2023-04-07T20:13:43.478Z,69.60
2023-04-07T20:16:11.738Z,69.60
2023-04-07T20:18:41.219Z,69.70
2023-04-07T20:21:09.951Z,69.70
2023-04-07T20:23:38.696Z,69.50
2023-04-07T20:26:07.000Z,69.50
2023-04-07T20:28:35.077Z,69.50
2023-04-07T20:31:03.239Z,69.50
2023-04-07T20:33:31.411Z,69.30
2023-04-07T20:36:01.092Z,69.40
2023-04-07T20:38:29.209Z,69.40
2023-04-07T20:40:57.251Z,69.50
2023-04-07T20:43:25.521Z,70.30
2023-04-07T20:45:53.650Z,69.80
2023-04-07T20:48:23.966Z,69.80
2023-04-07T20:50:52.838Z,69.80
2023-04-07T20:53:22.911Z,69.90
2023-04-07T20:55:51.420Z,69.90
2023-04-07T20:58:19.886Z,69.80
2023-04-07T21:00:48.277Z,70.00
2023-04-07T21:03:16.437Z,70.10
2023-04-07T21:05:45.790Z,70.20
2023-04-07T21:08:14.697Z,70.20
2023-04-07T21:10:44.362Z,70.20
2023-04-07T21:13:12.403Z,70.40
2023-04-07T21:15:42.317Z,70.20
2023-04-07T21:18:10.595Z,70.20
2023-04-07T21:20:38.819Z,70.10
2023-04-07T21:23:07.774Z,70.00
2023-04-07T21:25:37.821Z,69.90
2023-04-07T21:28:07.352Z,69.80
2023-04-07T21:30:35.518Z,69.70
2023-04-07T21:33:04.136Z,69.60
2023-04-07T21:35:32.235Z,69.60
2023-04-07T21:38:00.438Z,69.70
2023-04-07T21:40:28.618Z,69.90
2023-04-07T21:42:57.587Z,70.20
2023-04-07T21:45:27.099Z,70.40
2023-04-07T21:47:55.141Z,70.50
2023-04-07T21:50:23.955Z,70.40
2023-04-07T21:52:52.785Z,70.50
2023-04-07T21:55:21.295Z,70.50
2023-04-07T21:57:50.138Z,70.50
2023-04-07T22:00:18.542Z,70.40
2023-04-07T22:02:48.246Z,70.40
2023-04-07T22:05:16.985Z,70.50
2023-04-07T22:07:46.807Z,70.40
2023-04-07T22:10:15.103Z,70.30
2023-04-07T22:12:43.151Z,70.40
2023-04-07T22:15:12.977Z,70.30
2023-04-07T22:17:41.352Z,70.30
2023-04-07T22:20:12.429Z,70.20
2023-04-07T22:22:40.570Z,70.20
2023-04-07T22:25:09.356Z,70.10
2023-04-07T22:27:37.445Z,70.10
2023-04-07T22:30:08.489Z,70.10
2023-04-07T22:32:36.928Z,70.20
2023-04-07T22:35:05.851Z,70.00
2023-04-07T22:37:35.309Z,70.00
2023-04-07T22:40:03.688Z,69.90
2023-04-07T22:42:31.739Z,69.90
2023-04-07T22:44:59.797Z,70.00
2023-04-07T22:47:27.913Z,70.00
2023-04-07T22:49:56.457Z,70.00
2023-04-07T22:52:24.501Z,70.00
2023-04-07T22:54:53.932Z,70.10
2023-04-07T22:57:21.977Z,70.30
2023-04-07T22:59:50.026Z,70.40
2023-04-07T23:02:18.260Z,70.30
2023-04-07T23:04:46.328Z,70.20
2023-04-07T23:07:14.416Z,70.10
2023-04-07T23:09:42.467Z,70.10
2023-04-07T23:12:11.920Z,70.20
2023-04-07T23:14:39.949Z,70.30
2023-04-07T23:17:08.462Z,70.30
2023-04-07T23:19:36.551Z,70.20
2023-04-07T23:22:04.764Z,70.10
2023-04-07T23:24:32.805Z,70.20
2023-04-07T23:27:00.846Z,70.20
2023-04-07T23:29:30.289Z,70.20
2023-04-07T23:31:58.439Z,70.30
2023-04-07T23:34:26.627Z,70.40
2023-04-07T23:36:54.672Z,70.30
2023-04-07T23:39:22.704Z,70.30
2023-04-07T23:41:50.819Z,70.40
2023-04-07T23:44:18.870Z,70.40
2023-04-07T23:46:48.285Z,70.30
2023-04-07T23:49:16.777Z,70.40
2023-04-07T23:51:44.868Z,70.50
2023-04-07T23:54:12.919Z,70.50
2023-04-07T23:56:41.372Z,70.30
2023-04-07T23:59:09.426Z,70.40
